»·PEaware :: UAL372 KBFI-KPDX

UAL372 :: KBFI-KPDX

FLIGHT INFORMATION

Flight Status: Arrived
Operator:
United Airlines
More flights by this operator :: More flights under this callsign
Pilot: Pratham R. (19019)
Aircraft: BOEING 737-800
(B738)
More flights by this aircraft type
Origin: KBFI Boeing Field/King Co Intl
United States
Destination: KPDX Portland Intl
United States
More flights between these airports :: More routes between these airports
Route: +NRVNA1 BUWZO KRATR2
File this flight plan on PilotEdge
Remarks: RMK / SIMBRIEF
Altitude:
(Current/Filed)
19,000ft
Speed:
(Current/Filed)
372kts
Departed: 28-Mar-20 01:02 PM
Arrived: 28-Mar-20 01:37 PM
Distance/Time
Traveled:
117nm/0:35
Distance/Time
To Go:
Arrived

Flight Plot

Page will automatically refresh every two minutes.

Flight plan parsing failed; only flown route is shown


Map Options




Map Legend


Flown Route
Filed Route
Departure Airport
Arrival Airport
Navaid (VOR, NDB)
Fix

Horizontal Profiles

Position Reports

Time Latitude Longitude Heading Altitude Ground
Speed
28-Mar-20 12:29 47.534399 -122.310630 62 19ft 0kts
28-Mar-20 12:30 47.534399 -122.310630 62 19ft 0kts
28-Mar-20 12:31 47.534399 -122.310630 62 19ft 0kts
28-Mar-20 12:32 47.534399 -122.310630 62 19ft 0kts
28-Mar-20 12:33 47.534399 -122.310630 62 19ft 0kts
28-Mar-20 12:34 47.534399 -122.310630 62 19ft 0kts
28-Mar-20 12:35 47.534399 -122.310630 62 19ft 0kts
28-Mar-20 12:36 47.534399 -122.310630 62 19ft 0kts
28-Mar-20 12:37 47.534399 -122.310630 62 19ft 0kts
28-Mar-20 12:38 47.534399 -122.310630 62 19ft 0kts
28-Mar-20 12:39 47.534399 -122.310630 62 19ft 0kts
28-Mar-20 12:40 47.534399 -122.310630 62 19ft 0kts
28-Mar-20 12:41 47.534399 -122.310630 62 19ft 0kts
28-Mar-20 12:42 47.534399 -122.310630 62 19ft 0kts
28-Mar-20 12:43 47.534399 -122.310630 62 19ft 0kts
28-Mar-20 12:44 47.534399 -122.310630 62 19ft 0kts
28-Mar-20 12:45 47.534399 -122.310630 62 19ft 0kts
28-Mar-20 12:46 47.534399 -122.310630 62 19ft 0kts
28-Mar-20 12:47 47.534399 -122.310630 62 19ft 0kts
28-Mar-20 12:48 47.534399 -122.310630 62 19ft 0kts
28-Mar-20 12:49 47.534399 -122.310630 62 19ft 0kts
28-Mar-20 12:50 47.534399 -122.310630 62 19ft 0kts
28-Mar-20 12:51 47.534469 -122.310432 62 20ft 0kts
28-Mar-20 12:52 47.534928 -122.310295 331 20ft 0kts
28-Mar-20 12:53 47.534928 -122.310296 331 20ft 0kts
28-Mar-20 12:54 47.534928 -122.310296 331 20ft 0kts
28-Mar-20 12:55 47.534928 -122.310296 331 20ft 0kts
28-Mar-20 12:56 47.534928 -122.310296 331 20ft 0kts
28-Mar-20 12:57 47.535215 -122.310527 332 20ft 8kts
28-Mar-20 12:58 47.537508 -122.312742 330 20ft 9kts
28-Mar-20 12:59 47.539460 -122.313401 62 23ft 3kts
28-Mar-20 13:00 47.540033 -122.311717 66 24ft 4kts
28-Mar-20 13:01 47.524859 -122.298312 152 945ft 148kts
28-Mar-20 13:02 47.477972 -122.258789 152 2005ft 230kts
28-Mar-20 13:03 47.419322 -122.208823 152 6299ft 262kts
28-Mar-20 13:04 47.352097 -122.184269 190 10482ft 274kts
28-Mar-20 13:05 47.270416 -122.208253 194 13438ft 327kts
28-Mar-20 13:06 47.179702 -122.237968 195 16498ft 349kts
28-Mar-20 13:08 47.082756 -122.270129 195 19000ft 366kts
28-Mar-20 13:09 46.980830 -122.301247 194 19062ft 380kts
28-Mar-20 13:10 46.873908 -122.310235 182 19062ft 391kts
28-Mar-20 13:11 46.768773 -122.309698 183 19061ft 371kts
28-Mar-20 13:12 46.664672 -122.309688 183 19059ft 374kts
28-Mar-20 13:13 46.564060 -122.309647 183 18311ft 356kts
28-Mar-20 13:14 46.466056 -122.309678 183 16587ft 350kts
28-Mar-20 13:15 46.370745 -122.309662 183 14913ft 336kts
28-Mar-20 13:16 46.279129 -122.309804 185 13236ft 323kts
28-Mar-20 13:17 46.203399 -122.339395 203 11735ft 312kts
28-Mar-20 13:18 46.128328 -122.381466 202 10649ft 266kts
28-Mar-20 13:19 46.063408 -122.417209 201 10030ft 253kts
28-Mar-20 13:20 45.997605 -122.452636 200 8910ft 251kts
28-Mar-20 13:21 45.933844 -122.490966 209 7721ft 251kts
28-Mar-20 13:21 45.889709 -122.545264 220 6721ft 248kts
28-Mar-20 13:23 45.830266 -122.619987 218 5518ft 235kts
28-Mar-20 13:24 45.781984 -122.676054 220 5037ft 213kts
28-Mar-20 13:25 45.736880 -122.731358 222 4073ft 204kts
28-Mar-20 13:26 45.695405 -122.771058 186 3167ft 166kts
28-Mar-20 13:26 45.674397 -122.732564 104 3958ft 194kts
28-Mar-20 13:27 45.705513 -122.693152 325 4032ft 190kts
28-Mar-20 13:28 45.730763 -122.759504 295 4008ft 194kts
28-Mar-20 13:30 45.727659 -122.841447 210 3222ft 181kts
28-Mar-20 13:30 45.691865 -122.833388 125 2747ft 181kts
28-Mar-20 13:31 45.667405 -122.775159 125 2012ft 168kts
28-Mar-20 13:32 45.641533 -122.715861 119 1861ft 177kts
28-Mar-20 13:33 45.620511 -122.663165 117 1127ft 134kts
28-Mar-20 13:34 45.603424 -122.617558 118 464ft 132kts
28-Mar-20 13:35 45.588466 -122.579338 118 40ft 51kts
28-Mar-20 13:36 45.586361 -122.576315 207 40ft 2kts
28-Mar-20 13:37 45.586423 -122.577392 297 40ft 5kts
28-Mar-20 13:38 45.587633 -122.580414 298 40ft 11kts
28-Mar-20 13:39 45.589473 -122.585125 298 40ft 17kts
28-Mar-20 13:40 45.591779 -122.591060 299 40ft 15kts
28-Mar-20 13:41 45.593598 -122.595932 277 40ft 9kts
28-Mar-20 13:42 45.592101 -122.598474 209 40ft 7kts
28-Mar-20 13:43 45.590752 -122.598059 170 40ft 4kts
28-Mar-20 13:44 45.590286 -122.598347 209 40ft 0kts
28-Mar-20 13:45 45.590286 -122.598347 209 40ft 0kts
28-Mar-20 13:46 45.590286 -122.598347 209 40ft 0kts
28-Mar-20 13:47 45.590286 -122.598347 209 40ft 0kts

Navigation Log

Ident Type
Flight plan parsing failed, navigation log unavailable